Search for airport 
image banner adimage banner adimage banner ad
image banner ad

PN25 - Lindsay

Located in Freeport, United States

ICAO - PN25, IATA -

Data provided by Airmate  

General information

Coordinates: N40°44'8" W79°41'19"
Elevation is 1080 feet MSL.
Magnetic variation is -08° East
View others Airports in Pennsylvania

Operational data

Special qualification required
Current time UTC:
Current local time:
METAR: KBTP 291456Z AUTO 21007KT 10SM SCT033 OVC065 24/20 A2993 RMK AO2 LTG DSNT N SLP133 6//// T02390200 57013
View NOTAMs / SUP AIP / TFR affecting this airport [VIEW]
Communications frequencies: [VIEW]

Runways:

RWY identifierQFULength (ft)Width (ft)SurfaceLDA (ft)
101750100GRASS
281750100GRASS

Airport contact information

Address: Freeport United States

Satellite view of PN25